sensor_id;sensor_type;location;lat;lon;timestamp;temperature;humidity
10788;DHT22;5446;50.826;4.380;2022-09-11T00:00:47;16.10;99.90
10788;DHT22;5446;50.826;4.380;2022-09-11T00:03:14;16.10;99.90
10788;DHT22;5446;50.826;4.380;2022-09-11T00:05:40;16.10;99.90
10788;DHT22;5446;50.826;4.380;2022-09-11T00:08:10;16.10;99.90
10788;DHT22;5446;50.826;4.380;2022-09-11T00:10:38;16.10;99.90
10788;DHT22;5446;50.826;4.380;2022-09-11T00:13:21;16.10;99.90
10788;DHT22;5446;50.826;4.380;2022-09-11T00:15:50;16.10;99.90
10788;DHT22;5446;50.826;4.380;2022-09-11T00:18:18;16.10;99.90
10788;DHT22;5446;50.826;4.380;2022-09-11T00:20:56;16.00;99.90
10788;DHT22;5446;50.826;4.380;2022-09-11T00:23:25;16.00;99.90
10788;DHT22;5446;50.826;4.380;2022-09-11T00:25:51;16.00;99.90
10788;DHT22;5446;50.826;4.380;2022-09-11T00:28:23;15.90;99.90
10788;DHT22;5446;50.826;4.380;2022-09-11T00:30:59;15.90;99.90
10788;DHT22;5446;50.826;4.380;2022-09-11T00:33:26;15.90;99.90
10788;DHT22;5446;50.826;4.380;2022-09-11T00:35:57;15.80;99.90
10788;DHT22;5446;50.826;4.380;2022-09-11T00:38:28;15.80;99.90
10788;DHT22;5446;50.826;4.380;2022-09-11T00:40:56;15.80;99.90
10788;DHT22;5446;50.826;4.380;2022-09-11T00:43:23;15.80;99.90
10788;DHT22;5446;50.826;4.380;2022-09-11T00:45:56;15.70;99.90
10788;DHT22;5446;50.826;4.380;2022-09-11T00:48:25;15.70;99.90
10788;DHT22;5446;50.826;4.380;2022-09-11T00:50:53;15.70;99.90
10788;DHT22;5446;50.826;4.380;2022-09-11T00:53:22;15.70;99.90
10788;DHT22;5446;50.826;4.380;2022-09-11T00:55:57;15.60;99.90
10788;DHT22;5446;50.826;4.380;2022-09-11T00:58:27;15.60;99.90
10788;DHT22;5446;50.826;4.380;2022-09-11T01:00:56;15.60;99.90
10788;DHT22;5446;50.826;4.380;2022-09-11T01:03:23;15.50;99.90
10788;DHT22;5446;50.826;4.380;2022-09-11T01:05:50;15.50;99.90
10788;DHT22;5446;50.826;4.380;2022-09-11T01:08:17;15.50;99.90
10788;DHT22;5446;50.826;4.380;2022-09-11T01:14:03;15.50;99.90
10788;DHT22;5446;50.826;4.380;2022-09-11T01:19:17;15.40;99.90
10788;DHT22;5446;50.826;4.380;2022-09-11T01:27:45;15.40;99.90
10788;DHT22;5446;50.826;4.380;2022-09-11T01:30:19;15.30;99.90
10788;DHT22;5446;50.826;4.380;2022-09-11T01:38:21;15.40;99.90
10788;DHT22;5446;50.826;4.380;2022-09-11T01:40:58;15.30;99.90
10788;DHT22;5446;50.826;4.380;2022-09-11T01:43:28;15.30;99.90
10788;DHT22;5446;50.826;4.380;2022-09-11T01:45:58;15.40;99.90
10788;DHT22;5446;50.826;4.380;2022-09-11T01:48:38;15.30;99.90
10788;DHT22;5446;50.826;4.380;2022-09-11T01:51:07;15.30;99.90
10788;DHT22;5446;50.826;4.380;2022-09-11T01:53:39;15.30;99.90
10788;DHT22;5446;50.826;4.380;2022-09-11T01:56:21;15.30;99.90
10788;DHT22;5446;50.826;4.380;2022-09-11T01:58:52;15.30;99.90
10788;DHT22;5446;50.826;4.380;2022-09-11T02:01:23;15.20;99.90
10788;DHT22;5446;50.826;4.380;2022-09-11T02:04:09;15.20;99.90
10788;DHT22;5446;50.826;4.380;2022-09-11T02:06:48;15.20;99.90
10788;DHT22;5446;50.826;4.380;2022-09-11T02:09:19;15.10;99.90
10788;DHT22;5446;50.826;4.380;2022-09-11T02:11:47;15.10;99.90
10788;DHT22;5446;50.826;4.380;2022-09-11T02:14:28;15.10;99.90
10788;DHT22;5446;50.826;4.380;2022-09-11T02:19:26;15.10;99.90
10788;DHT22;5446;50.826;4.380;2022-09-11T02:21:53;15.10;99.90
10788;DHT22;5446;50.826;4.380;2022-09-11T02:24:21;15.10;99.90
10788;DHT22;5446;50.826;4.380;2022-09-11T02:27:32;15.00;99.90
10788;DHT22;5446;50.826;4.380;2022-09-11T02:29:38;15.00;99.90
10788;DHT22;5446;50.826;4.380;2022-09-11T02:32:04;15.00;99.90
10788;DHT22;5446;50.826;4.380;2022-09-11T02:34:32;15.00;99.90
10788;DHT22;5446;50.826;4.380;2022-09-11T02:39:58;15.10;99.90
10788;DHT22;5446;50.826;4.380;2022-09-11T02:42:47;15.00;99.90
10788;DHT22;5446;50.826;4.380;2022-09-11T02:58:33;15.10;99.90
10788;DHT22;5446;50.826;4.380;2022-09-11T03:01:01;15.10;99.90
10788;DHT22;5446;50.826;4.380;2022-09-11T03:03:28;15.10;99.90
10788;DHT22;5446;50.826;4.380;2022-09-11T03:06:01;15.10;99.90
10788;DHT22;5446;50.826;4.380;2022-09-11T03:08:26;15.10;99.90
10788;DHT22;5446;50.826;4.380;2022-09-11T03:10:53;15.10;99.90
10788;DHT22;5446;50.826;4.380;2022-09-11T03:13:19;15.10;99.90
10788;DHT22;5446;50.826;4.380;2022-09-11T03:15:45;15.00;99.90
10788;DHT22;5446;50.826;4.380;2022-09-11T03:18:11;15.00;99.90
10788;DHT22;5446;50.826;4.380;2022-09-11T03:20:44;14.90;99.90
10788;DHT22;5446;50.826;4.380;2022-09-11T03:23:11;14.90;99.90
10788;DHT22;5446;50.826;4.380;2022-09-11T03:25:38;14.90;99.90
10788;DHT22;5446;50.826;4.380;2022-09-11T03:28:05;14.90;99.90
10788;DHT22;5446;50.826;4.380;2022-09-11T03:30:31;14.90;99.90
10788;DHT22;5446;50.826;4.380;2022-09-11T03:32:57;14.90;99.90
10788;DHT22;5446;50.826;4.380;2022-09-11T03:35:23;14.90;99.90
10788;DHT22;5446;50.826;4.380;2022-09-11T03:37:49;14.90;99.90
10788;DHT22;5446;50.826;4.380;2022-09-11T03:40:15;14.90;99.90
10788;DHT22;5446;50.826;4.380;2022-09-11T03:42:41;14.90;99.90
10788;DHT22;5446;50.826;4.380;2022-09-11T03:45:07;14.90;99.90
10788;DHT22;5446;50.826;4.380;2022-09-11T03:47:33;14.90;99.90
10788;DHT22;5446;50.826;4.380;2022-09-11T03:49:58;14.90;99.90
10788;DHT22;5446;50.826;4.380;2022-09-11T03:52:24;14.90;99.90
10788;DHT22;5446;50.826;4.380;2022-09-11T03:54:49;14.90;99.90
10788;DHT22;5446;50.826;4.380;2022-09-11T03:57:15;14.90;99.90
10788;DHT22;5446;50.826;4.380;2022-09-11T03:59:41;14.90;99.90
10788;DHT22;5446;50.826;4.380;2022-09-11T04:02:06;14.90;99.90
10788;DHT22;5446;50.826;4.380;2022-09-11T04:04:32;14.90;99.90
10788;DHT22;5446;50.826;4.380;2022-09-11T04:06:58;14.90;99.90
10788;DHT22;5446;50.826;4.380;2022-09-11T04:09:23;14.90;99.90
10788;DHT22;5446;50.826;4.380;2022-09-11T04:11:49;14.80;99.90
10788;DHT22;5446;50.826;4.380;2022-09-11T04:14:15;14.80;99.90
10788;DHT22;5446;50.826;4.380;2022-09-11T04:16:41;14.80;99.90
10788;DHT22;5446;50.826;4.380;2022-09-11T04:19:09;14.80;99.90
10788;DHT22;5446;50.826;4.380;2022-09-11T04:21:34;14.70;99.90
10788;DHT22;5446;50.826;4.380;2022-09-11T04:24:00;14.70;99.90
10788;DHT22;5446;50.826;4.380;2022-09-11T04:26:29;14.70;99.90
10788;DHT22;5446;50.826;4.380;2022-09-11T04:28:56;14.70;99.90
10788;DHT22;5446;50.826;4.380;2022-09-11T04:31:22;14.70;99.90
10788;DHT22;5446;50.826;4.380;2022-09-11T04:33:48;14.70;99.90
10788;DHT22;5446;50.826;4.380;2022-09-11T04:36:16;14.70;99.90
10788;DHT22;5446;50.826;4.380;2022-09-11T04:38:43;14.70;99.90
10788;DHT22;5446;50.826;4.380;2022-09-11T04:41:09;14.80;99.90
10788;DHT22;5446;50.826;4.380;2022-09-11T04:43:36;14.80;99.90
10788;DHT22;5446;50.826;4.380;2022-09-11T04:46:04;14.70;99.90
10788;DHT22;5446;50.826;4.380;2022-09-11T04:48:30;14.70;99.90
10788;DHT22;5446;50.826;4.380;2022-09-11T04:51:04;14.70;99.90
10788;DHT22;5446;50.826;4.380;2022-09-11T04:53:30;14.70;99.90
10788;DHT22;5446;50.826;4.380;2022-09-11T04:56:08;14.70;99.90
10788;DHT22;5446;50.826;4.380;2022-09-11T04:58:35;14.60;99.90
10788;DHT22;5446;50.826;4.380;2022-09-11T05:01:05;14.70;99.90
10788;DHT22;5446;50.826;4.380;2022-09-11T05:03:30;14.70;99.90
10788;DHT22;5446;50.826;4.380;2022-09-11T05:05:56;14.70;99.90
10788;DHT22;5446;50.826;4.380;2022-09-11T05:08:25;14.70;99.90
10788;DHT22;5446;50.826;4.380;2022-09-11T05:10:51;14.70;99.90
10788;DHT22;5446;50.826;4.380;2022-09-11T05:13:17;14.70;99.90
10788;DHT22;5446;50.826;4.380;2022-09-11T05:15:43;14.60;99.90
10788;DHT22;5446;50.826;4.380;2022-09-11T05:18:09;14.60;99.90
10788;DHT22;5446;50.826;4.380;2022-09-11T05:20:36;14.70;99.90
10788;DHT22;5446;50.826;4.380;2022-09-11T05:23:01;14.70;99.90
10788;DHT22;5446;50.826;4.380;2022-09-11T05:25:30;14.70;99.90
10788;DHT22;5446;50.826;4.380;2022-09-11T05:27:56;14.70;99.90
10788;DHT22;5446;50.826;4.380;2022-09-11T05:30:22;14.70;99.90
10788;DHT22;5446;50.826;4.380;2022-09-11T05:32:52;14.70;99.90
10788;DHT22;5446;50.826;4.380;2022-09-11T05:35:22;14.80;99.90
10788;DHT22;5446;50.826;4.380;2022-09-11T05:37:49;14.80;99.90
10788;DHT22;5446;50.826;4.380;2022-09-11T05:40:14;14.80;99.90
10788;DHT22;5446;50.826;4.380;2022-09-11T05:43:15;14.80;99.90
10788;DHT22;5446;50.826;4.380;2022-09-11T05:45:41;14.80;99.90
10788;DHT22;5446;50.826;4.380;2022-09-11T05:48:08;14.80;99.90
10788;DHT22;5446;50.826;4.380;2022-09-11T05:50:35;14.80;99.90
10788;DHT22;5446;50.826;4.380;2022-09-11T05:53:01;14.80;99.90
10788;DHT22;5446;50.826;4.380;2022-09-11T05:55:26;14.80;99.90
10788;DHT22;5446;50.826;4.380;2022-09-11T05:57:52;14.80;99.90
10788;DHT22;5446;50.826;4.380;2022-09-11T06:00:18;14.80;99.90
10788;DHT22;5446;50.826;4.380;2022-09-11T06:02:45;14.90;99.90
10788;DHT22;5446;50.826;4.380;2022-09-11T06:05:14;14.90;99.90
10788;DHT22;5446;50.826;4.380;2022-09-11T06:07:40;15.00;99.90
10788;DHT22;5446;50.826;4.380;2022-09-11T06:10:07;15.00;99.90
10788;DHT22;5446;50.826;4.380;2022-09-11T06:12:33;15.00;99.90
10788;DHT22;5446;50.826;4.380;2022-09-11T06:14:59;15.00;99.90
10788;DHT22;5446;50.826;4.380;2022-09-11T06:17:25;15.00;99.90
10788;DHT22;5446;50.826;4.380;2022-09-11T06:19:52;15.10;99.90
10788;DHT22;5446;50.826;4.380;2022-09-11T06:22:18;15.10;99.90
10788;DHT22;5446;50.826;4.380;2022-09-11T06:24:46;15.20;99.90
10788;DHT22;5446;50.826;4.380;2022-09-11T06:27:12;15.20;99.90
10788;DHT22;5446;50.826;4.380;2022-09-11T06:29:38;15.20;99.90
10788;DHT22;5446;50.826;4.380;2022-09-11T06:32:03;15.30;99.90
10788;DHT22;5446;50.826;4.380;2022-09-11T06:34:30;15.40;99.90
10788;DHT22;5446;50.826;4.380;2022-09-11T06:36:56;15.40;99.90
10788;DHT22;5446;50.826;4.380;2022-09-11T06:39:21;15.60;99.90
10788;DHT22;5446;50.826;4.380;2022-09-11T06:41:47;15.60;99.90
10788;DHT22;5446;50.826;4.380;2022-09-11T06:44:14;15.70;99.90
10788;DHT22;5446;50.826;4.380;2022-09-11T06:46:39;15.70;99.90
10788;DHT22;5446;50.826;4.380;2022-09-11T06:49:05;15.60;99.90
10788;DHT22;5446;50.826;4.380;2022-09-11T06:51:31;15.70;99.90
10788;DHT22;5446;50.826;4.380;2022-09-11T06:53:58;15.70;99.90
10788;DHT22;5446;50.826;4.380;2022-09-11T06:56:27;15.80;99.90
10788;DHT22;5446;50.826;4.380;2022-09-11T06:58:53;15.90;99.90
10788;DHT22;5446;50.826;4.380;2022-09-11T07:01:20;16.10;99.90
10788;DHT22;5446;50.826;4.380;2022-09-11T07:03:48;16.20;99.90
10788;DHT22;5446;50.826;4.380;2022-09-11T07:06:16;16.20;99.90
10788;DHT22;5446;50.826;4.380;2022-09-11T07:08:42;16.10;99.90
10788;DHT22;5446;50.826;4.380;2022-09-11T07:11:09;16.00;99.90
10788;DHT22;5446;50.826;4.380;2022-09-11T07:13:37;16.10;99.90
10788;DHT22;5446;50.826;4.380;2022-09-11T07:16:07;16.20;99.90
10788;DHT22;5446;50.826;4.380;2022-09-11T07:18:34;16.20;99.90
10788;DHT22;5446;50.826;4.380;2022-09-11T07:21:04;16.20;99.90
10788;DHT22;5446;50.826;4.380;2022-09-11T07:23:29;16.20;99.90
10788;DHT22;5446;50.826;4.380;2022-09-11T07:25:55;16.30;99.90
10788;DHT22;5446;50.826;4.380;2022-09-11T07:28:20;16.30;99.90
10788;DHT22;5446;50.826;4.380;2022-09-11T07:30:46;16.30;99.90
10788;DHT22;5446;50.826;4.380;2022-09-11T07:33:13;16.30;99.90
10788;DHT22;5446;50.826;4.380;2022-09-11T07:35:38;16.30;99.90
10788;DHT22;5446;50.826;4.380;2022-09-11T07:38:04;16.40;99.90
10788;DHT22;5446;50.826;4.380;2022-09-11T07:40:29;16.40;99.90
10788;DHT22;5446;50.826;4.380;2022-09-11T07:42:55;16.50;99.90
10788;DHT22;5446;50.826;4.380;2022-09-11T07:45:21;16.50;99.90
10788;DHT22;5446;50.826;4.380;2022-09-11T07:47:47;16.50;99.90
10788;DHT22;5446;50.826;4.380;2022-09-11T07:50:13;16.60;99.90
10788;DHT22;5446;50.826;4.380;2022-09-11T07:52:38;16.80;99.90
10788;DHT22;5446;50.826;4.380;2022-09-11T07:55:04;16.90;99.90
10788;DHT22;5446;50.826;4.380;2022-09-11T07:57:30;16.90;99.90
10788;DHT22;5446;50.826;4.380;2022-09-11T07:59:56;16.90;99.90
10788;DHT22;5446;50.826;4.380;2022-09-11T08:02:22;16.90;99.90
10788;DHT22;5446;50.826;4.380;2022-09-11T08:04:48;16.90;99.90
10788;DHT22;5446;50.826;4.380;2022-09-11T08:07:14;16.90;99.90
10788;DHT22;5446;50.826;4.380;2022-09-11T08:09:41;16.90;99.90
10788;DHT22;5446;50.826;4.380;2022-09-11T08:12:06;16.90;99.90
10788;DHT22;5446;50.826;4.380;2022-09-11T08:14:32;16.90;99.90
10788;DHT22;5446;50.826;4.380;2022-09-11T08:16:58;16.90;99.90
10788;DHT22;5446;50.826;4.380;2022-09-11T08:19:23;17.00;99.90
10788;DHT22;5446;50.826;4.380;2022-09-11T08:21:49;17.20;99.90
10788;DHT22;5446;50.826;4.380;2022-09-11T08:24:16;17.20;99.90
10788;DHT22;5446;50.826;4.380;2022-09-11T08:26:42;17.20;99.90
10788;DHT22;5446;50.826;4.380;2022-09-11T08:29:09;17.30;99.90
10788;DHT22;5446;50.826;4.380;2022-09-11T08:31:34;17.30;99.90
10788;DHT22;5446;50.826;4.380;2022-09-11T08:34:00;17.30;99.90
10788;DHT22;5446;50.826;4.380;2022-09-11T08:36:26;17.30;99.90
10788;DHT22;5446;50.826;4.380;2022-09-11T08:38:53;17.50;99.90
10788;DHT22;5446;50.826;4.380;2022-09-11T08:46:31;17.80;99.90
10788;DHT22;5446;50.826;4.380;2022-09-11T08:51:43;18.20;99.90
10788;DHT22;5446;50.826;4.380;2022-09-11T08:54:27;18.30;99.90
10788;DHT22;5446;50.826;4.380;2022-09-11T08:57:22;18.20;99.90
10788;DHT22;5446;50.826;4.380;2022-09-11T09:07:37;18.10;99.90
10788;DHT22;5446;50.826;4.380;2022-09-11T09:13:31;18.40;99.90
10788;DHT22;5446;50.826;4.380;2022-09-11T09:16:24;18.40;99.90
10788;DHT22;5446;50.826;4.380;2022-09-11T09:19:08;18.40;99.90
10788;DHT22;5446;50.826;4.380;2022-09-11T09:21:41;18.50;99.90
10788;DHT22;5446;50.826;4.380;2022-09-11T09:24:15;18.50;99.90
10788;DHT22;5446;50.826;4.380;2022-09-11T09:26:54;18.50;99.90
10788;DHT22;5446;50.826;4.380;2022-09-11T09:29:23;18.50;99.90
10788;DHT22;5446;50.826;4.380;2022-09-11T09:31:54;18.40;99.90
10788;DHT22;5446;50.826;4.380;2022-09-11T09:34:23;18.40;99.90
10788;DHT22;5446;50.826;4.380;2022-09-11T09:37:04;18.60;99.90
10788;DHT22;5446;50.826;4.380;2022-09-11T09:39:31;18.60;99.90
10788;DHT22;5446;50.826;4.380;2022-09-11T09:45:08;18.50;99.90
10788;DHT22;5446;50.826;4.380;2022-09-11T09:47:42;18.60;99.90
10788;DHT22;5446;50.826;4.380;2022-09-11T09:50:36;18.70;99.90
10788;DHT22;5446;50.826;4.380;2022-09-11T09:55:45;19.10;99.90
10788;DHT22;5446;50.826;4.380;2022-09-11T09:58:12;19.40;99.90
10788;DHT22;5446;50.826;4.380;2022-09-11T10:00:40;19.60;99.90
10788;DHT22;5446;50.826;4.380;2022-09-11T10:03:19;19.40;99.90
10788;DHT22;5446;50.826;4.380;2022-09-11T10:05:46;19.40;99.90
10788;DHT22;5446;50.826;4.380;2022-09-11T10:08:33;19.50;99.90
10788;DHT22;5446;50.826;4.380;2022-09-11T10:11:07;19.60;99.90
10788;DHT22;5446;50.826;4.380;2022-09-11T10:13:41;19.60;99.90
10788;DHT22;5446;50.826;4.380;2022-09-11T10:16:22;19.40;99.90
10788;DHT22;5446;50.826;4.380;2022-09-11T10:18:49;19.20;99.90
10788;DHT22;5446;50.826;4.380;2022-09-11T10:21:26;19.20;99.90
10788;DHT22;5446;50.826;4.380;2022-09-11T10:24:02;19.60;99.90
10788;DHT22;5446;50.826;4.380;2022-09-11T10:26:32;19.40;99.90
10788;DHT22;5446;50.826;4.380;2022-09-11T10:31:40;19.30;99.90
10788;DHT22;5446;50.826;4.380;2022-09-11T10:34:14;19.30;99.90
10788;DHT22;5446;50.826;4.380;2022-09-11T10:36:54;19.20;99.90
10788;DHT22;5446;50.826;4.380;2022-09-11T10:39:22;19.20;99.90
10788;DHT22;5446;50.826;4.380;2022-09-11T10:41:50;19.20;99.90
10788;DHT22;5446;50.826;4.380;2022-09-11T10:44:20;19.30;99.90
10788;DHT22;5446;50.826;4.380;2022-09-11T10:47:03;19.30;99.90
10788;DHT22;5446;50.826;4.380;2022-09-11T10:49:31;19.40;99.90
10788;DHT22;5446;50.826;4.380;2022-09-11T10:52:15;19.50;99.90
10788;DHT22;5446;50.826;4.380;2022-09-11T11:03:00;20.00;99.90
10788;DHT22;5446;50.826;4.380;2022-09-11T11:08:36;20.50;99.90
10788;DHT22;5446;50.826;4.380;2022-09-11T11:11:19;20.70;99.90
10788;DHT22;5446;50.826;4.380;2022-09-11T11:24:38;21.40;99.90
10788;DHT22;5446;50.826;4.380;2022-09-11T11:30:14;21.40;99.90
10788;DHT22;5446;50.826;4.380;2022-09-11T11:37:51;21.50;99.90
10788;DHT22;5446;50.826;4.380;2022-09-11T11:40:27;21.30;99.90
10788;DHT22;5446;50.826;4.380;2022-09-11T11:45:51;21.50;99.90
10788;DHT22;5446;50.826;4.380;2022-09-11T11:50:49;21.50;99.90
10788;DHT22;5446;50.826;4.380;2022-09-11T11:53:28;21.70;99.90
10788;DHT22;5446;50.826;4.380;2022-09-11T12:01:33;21.70;99.90
10788;DHT22;5446;50.826;4.380;2022-09-11T12:04:30;21.80;99.90
10788;DHT22;5446;50.826;4.380;2022-09-11T12:06:58;21.80;99.90
10788;DHT22;5446;50.826;4.380;2022-09-11T12:09:24;21.90;99.90
10788;DHT22;5446;50.826;4.380;2022-09-11T12:11:52;22.00;99.90
10788;DHT22;5446;50.826;4.380;2022-09-11T12:14:27;22.00;99.90
10788;DHT22;5446;50.826;4.380;2022-09-11T12:17:14;22.40;99.90
10788;DHT22;5446;50.826;4.380;2022-09-11T12:22:43;22.60;99.90
10788;DHT22;5446;50.826;4.380;2022-09-11T12:30:24;22.90;99.90
10788;DHT22;5446;50.826;4.380;2022-09-11T12:32:59;23.00;99.90
10788;DHT22;5446;50.826;4.380;2022-09-11T12:35:45;22.80;99.90
10788;DHT22;5446;50.826;4.380;2022-09-11T12:40:56;22.50;99.90
10788;DHT22;5446;50.826;4.380;2022-09-11T12:46:07;22.50;99.90
10788;DHT22;5446;50.826;4.380;2022-09-11T12:48:39;22.40;99.90
10788;DHT22;5446;50.826;4.380;2022-09-11T12:53:50;22.50;99.90
10788;DHT22;5446;50.826;4.380;2022-09-11T12:56:20;22.70;99.90
10788;DHT22;5446;50.826;4.380;2022-09-11T12:59:05;22.60;99.90
10788;DHT22;5446;50.826;4.380;2022-09-11T13:01:36;22.60;99.90
10788;DHT22;5446;50.826;4.380;2022-09-11T13:04:14;22.70;99.90
10788;DHT22;5446;50.826;4.380;2022-09-11T13:06:47;22.70;99.90
10788;DHT22;5446;50.826;4.380;2022-09-11T13:14:59;22.60;99.90
10788;DHT22;5446;50.826;4.380;2022-09-11T13:17:44;22.50;99.90
10788;DHT22;5446;50.826;4.380;2022-09-11T13:20:20;22.50;99.90
10788;DHT22;5446;50.826;4.380;2022-09-11T13:22:46;22.50;99.90
10788;DHT22;5446;50.826;4.380;2022-09-11T13:25:14;22.60;99.90
10788;DHT22;5446;50.826;4.380;2022-09-11T13:27:50;22.40;99.90
10788;DHT22;5446;50.826;4.380;2022-09-11T13:30:21;22.40;99.90
10788;DHT22;5446;50.826;4.380;2022-09-11T13:32:50;22.50;99.90
10788;DHT22;5446;50.826;4.380;2022-09-11T13:35:24;22.50;99.90
10788;DHT22;5446;50.826;4.380;2022-09-11T13:38:02;22.40;99.90
10788;DHT22;5446;50.826;4.380;2022-09-11T13:40:47;22.40;99.90
10788;DHT22;5446;50.826;4.380;2022-09-11T13:43:18;22.50;99.90
10788;DHT22;5446;50.826;4.380;2022-09-11T13:45:45;22.70;99.90
10788;DHT22;5446;50.826;4.380;2022-09-11T13:48:21;22.90;99.90
10788;DHT22;5446;50.826;4.380;2022-09-11T13:50:50;22.80;99.90
10788;DHT22;5446;50.826;4.380;2022-09-11T13:53:17;23.20;99.90
10788;DHT22;5446;50.826;4.380;2022-09-11T13:55:49;23.10;99.90
10788;DHT22;5446;50.826;4.380;2022-09-11T13:58:31;23.30;99.90
10788;DHT22;5446;50.826;4.380;2022-09-11T14:01:15;23.40;99.90
10788;DHT22;5446;50.826;4.380;2022-09-11T14:03:47;23.50;99.90
10788;DHT22;5446;50.826;4.380;2022-09-11T14:06:18;23.50;99.90
10788;DHT22;5446;50.826;4.380;2022-09-11T14:08:50;23.50;99.90
10788;DHT22;5446;50.826;4.380;2022-09-11T14:11:27;23.60;99.90
10788;DHT22;5446;50.826;4.380;2022-09-11T14:14:23;23.50;99.90
10788;DHT22;5446;50.826;4.380;2022-09-11T14:16:55;23.40;99.90
10788;DHT22;5446;50.826;4.380;2022-09-11T14:19:29;23.40;99.90
10788;DHT22;5446;50.826;4.380;2022-09-11T14:21:55;23.20;99.90
10788;DHT22;5446;50.826;4.380;2022-09-11T14:27:37;23.00;99.90
10788;DHT22;5446;50.826;4.380;2022-09-11T14:30:29;23.10;99.90
10788;DHT22;5446;50.826;4.380;2022-09-11T14:33:15;23.20;99.90
10788;DHT22;5446;50.826;4.380;2022-09-11T14:35:43;23.30;99.90
10788;DHT22;5446;50.826;4.380;2022-09-11T14:38:12;23.10;99.90
10788;DHT22;5446;50.826;4.380;2022-09-11T14:40:52;23.00;99.90
10788;DHT22;5446;50.826;4.380;2022-09-11T14:43:27;23.20;99.90
10788;DHT22;5446;50.826;4.380;2022-09-11T14:45:56;23.30;99.90
10788;DHT22;5446;50.826;4.380;2022-09-11T14:48:23;23.30;99.90
10788;DHT22;5446;50.826;4.380;2022-09-11T14:50:49;23.30;99.90
10788;DHT22;5446;50.826;4.380;2022-09-11T14:53:17;23.30;99.90
10788;DHT22;5446;50.826;4.380;2022-09-11T14:55:46;23.30;99.90
10788;DHT22;5446;50.826;4.380;2022-09-11T14:58:12;23.40;99.90
10788;DHT22;5446;50.826;4.380;2022-09-11T15:00:37;23.40;99.90
10788;DHT22;5446;50.826;4.380;2022-09-11T15:03:03;23.40;99.90
10788;DHT22;5446;50.826;4.380;2022-09-11T15:05:29;23.40;99.90
10788;DHT22;5446;50.826;4.380;2022-09-11T15:07:57;23.40;99.90
10788;DHT22;5446;50.826;4.380;2022-09-11T15:10:22;23.40;99.90
10788;DHT22;5446;50.826;4.380;2022-09-11T15:12:48;23.30;99.90
10788;DHT22;5446;50.826;4.380;2022-09-11T15:15:14;23.20;99.90
10788;DHT22;5446;50.826;4.380;2022-09-11T15:17:40;23.20;99.90
10788;DHT22;5446;50.826;4.380;2022-09-11T15:20:06;23.20;99.90
10788;DHT22;5446;50.826;4.380;2022-09-11T15:22:33;23.20;99.90
10788;DHT22;5446;50.826;4.380;2022-09-11T15:24:59;23.20;99.90
10788;DHT22;5446;50.826;4.380;2022-09-11T15:27:26;23.20;99.90
10788;DHT22;5446;50.826;4.380;2022-09-11T15:29:52;23.10;99.90
10788;DHT22;5446;50.826;4.380;2022-09-11T15:32:19;23.20;99.90
10788;DHT22;5446;50.826;4.380;2022-09-11T15:34:46;23.10;99.90
10788;DHT22;5446;50.826;4.380;2022-09-11T15:37:13;23.10;99.90
10788;DHT22;5446;50.826;4.380;2022-09-11T15:39:40;23.20;99.90
10788;DHT22;5446;50.826;4.380;2022-09-11T15:42:06;23.00;99.90
10788;DHT22;5446;50.826;4.380;2022-09-11T15:44:34;23.20;99.90
10788;DHT22;5446;50.826;4.380;2022-09-11T15:47:00;23.20;99.90
10788;DHT22;5446;50.826;4.380;2022-09-11T15:49:28;23.20;99.90
10788;DHT22;5446;50.826;4.380;2022-09-11T15:51:56;23.30;99.90
10788;DHT22;5446;50.826;4.380;2022-09-11T15:54:23;23.20;99.90
10788;DHT22;5446;50.826;4.380;2022-09-11T15:56:50;23.20;99.90
10788;DHT22;5446;50.826;4.380;2022-09-11T15:59:16;23.20;99.90
10788;DHT22;5446;50.826;4.380;2022-09-11T16:01:42;23.10;99.90
10788;DHT22;5446;50.826;4.380;2022-09-11T16:04:11;23.20;99.90
10788;DHT22;5446;50.826;4.380;2022-09-11T16:06:42;23.40;99.90
10788;DHT22;5446;50.826;4.380;2022-09-11T16:09:29;23.60;99.90
10788;DHT22;5446;50.826;4.380;2022-09-11T16:11:55;24.10;99.90
10788;DHT22;5446;50.826;4.380;2022-09-11T16:14:27;24.80;99.90
10788;DHT22;5446;50.826;4.380;2022-09-11T16:16:54;25.40;99.90
10788;DHT22;5446;50.826;4.380;2022-09-11T16:19:23;25.80;99.90
10788;DHT22;5446;50.826;4.380;2022-09-11T16:21:53;26.20;99.90
10788;DHT22;5446;50.826;4.380;2022-09-11T16:24:20;26.70;99.90
10788;DHT22;5446;50.826;4.380;2022-09-11T16:26:46;26.80;99.90
10788;DHT22;5446;50.826;4.380;2022-09-11T16:29:13;26.90;99.90
10788;DHT22;5446;50.826;4.380;2022-09-11T16:31:42;27.10;99.90
10788;DHT22;5446;50.826;4.380;2022-09-11T16:34:09;27.10;99.90
10788;DHT22;5446;50.826;4.380;2022-09-11T16:36:35;27.10;99.90
10788;DHT22;5446;50.826;4.380;2022-09-11T16:39:05;27.10;99.90
10788;DHT22;5446;50.826;4.380;2022-09-11T16:41:31;27.10;99.90
10788;DHT22;5446;50.826;4.380;2022-09-11T16:43:57;26.60;99.90
10788;DHT22;5446;50.826;4.380;2022-09-11T16:46:24;26.60;99.90
10788;DHT22;5446;50.826;4.380;2022-09-11T16:48:50;26.60;99.90
10788;DHT22;5446;50.826;4.380;2022-09-11T16:51:18;26.60;99.90
10788;DHT22;5446;50.826;4.380;2022-09-11T16:53:45;26.60;99.90
10788;DHT22;5446;50.826;4.380;2022-09-11T16:56:14;26.40;99.90
10788;DHT22;5446;50.826;4.380;2022-09-11T16:58:40;26.40;99.90
10788;DHT22;5446;50.826;4.380;2022-09-11T17:01:17;26.20;99.90
10788;DHT22;5446;50.826;4.380;2022-09-11T17:03:45;26.10;99.90
10788;DHT22;5446;50.826;4.380;2022-09-11T17:06:12;25.90;99.90
10788;DHT22;5446;50.826;4.380;2022-09-11T17:08:40;25.60;99.90
10788;DHT22;5446;50.826;4.380;2022-09-11T17:11:07;25.50;99.90
10788;DHT22;5446;50.826;4.380;2022-09-11T17:13:34;25.10;99.90
10788;DHT22;5446;50.826;4.380;2022-09-11T17:16:02;24.70;99.90
10788;DHT22;5446;50.826;4.380;2022-09-11T17:18:28;24.20;99.90
10788;DHT22;5446;50.826;4.380;2022-09-11T17:20:55;23.80;99.90
10788;DHT22;5446;50.826;4.380;2022-09-11T17:23:22;23.40;99.90
10788;DHT22;5446;50.826;4.380;2022-09-11T17:25:47;23.00;99.90
10788;DHT22;5446;50.826;4.380;2022-09-11T17:28:15;22.70;99.90
10788;DHT22;5446;50.826;4.380;2022-09-11T17:30:41;22.40;99.90
10788;DHT22;5446;50.826;4.380;2022-09-11T17:33:07;22.20;99.90
10788;DHT22;5446;50.826;4.380;2022-09-11T17:35:33;22.00;99.90
10788;DHT22;5446;50.826;4.380;2022-09-11T17:37:59;21.90;99.90
10788;DHT22;5446;50.826;4.380;2022-09-11T17:40:26;21.80;99.90
10788;DHT22;5446;50.826;4.380;2022-09-11T17:42:52;21.70;99.90
10788;DHT22;5446;50.826;4.380;2022-09-11T17:45:18;21.60;99.90
10788;DHT22;5446;50.826;4.380;2022-09-11T17:47:43;21.50;99.90
10788;DHT22;5446;50.826;4.380;2022-09-11T17:50:09;21.40;99.90
10788;DHT22;5446;50.826;4.380;2022-09-11T17:52:35;21.30;99.90
10788;DHT22;5446;50.826;4.380;2022-09-11T17:55:04;21.20;99.90
10788;DHT22;5446;50.826;4.380;2022-09-11T17:57:30;21.00;99.90
10788;DHT22;5446;50.826;4.380;2022-09-11T17:59:57;20.90;99.90
10788;DHT22;5446;50.826;4.380;2022-09-11T18:02:23;20.90;99.90
10788;DHT22;5446;50.826;4.380;2022-09-11T18:04:49;20.80;99.90
10788;DHT22;5446;50.826;4.380;2022-09-11T18:07:15;20.70;99.90
10788;DHT22;5446;50.826;4.380;2022-09-11T18:09:41;20.50;99.90